• Join FlightAware (Why Join?)
  • Login
  • US Flag 
11:38AM EDT


 

Airport Tracker/Info


-or-


 

Live Flight TrackerFlight Track Log ✈ TRS423 ✈ 19-Jul-2013 ✈ KMCO - KPHL

Flight Track Log - Related Links

Times and Time Zones

All times are in EDT time to prevent confusion due to time zone crossing. See the TRS423 flight status page for this flight to view local times or setup timezone preferences in your user account.

Time Position Orientation Groundspeed Altitude Reporting Facility
EDT Latitude Longitude Course Direction KTS MPH feet Rate Location/Type
01:04PM 28.4000 -81.3000 156° South 161 185 800  Level Orlando TRACON
01:05PM 28.3667 -81.2833 156° South 199 229 2,200 1,620 Climbing Orlando TRACON
01:06PM 28.3000 -81.2333 147° Southeast 240 276 3,900 1,680 Climbing Orlando TRACON
01:07PM 28.3167 -81.1667 74° East 262 302 5,700 1,800 Climbing Orlando TRACON
01:08PM 28.3667 -81.0833 56° Northeast 301 346 7,600 1,920 Climbing Orlando TRACON
01:09PM 28.4333 -81.0833 360° North 306 352 9,400 1,920 Climbing Orlando TRACON
01:11PM 28.5678 -81.1386 340° North 346 398 12,500 1,920 Climbing Jacksonville Center
01:12PM 28.6581 -81.1819 337° Northwest 351 404 14,700 2,040 Climbing Jacksonville Center
01:13PM 28.7506 -81.2256 338° Northwest 351 404 16,700 1,680 Climbing Jacksonville Center
01:14PM 28.8472 -81.2736 336° Northwest 362 417 18,100 1,620 Climbing Jacksonville Center
01:15PM 28.9478 -81.3169 339° North 368 423 20,000 1,680 Climbing Jacksonville Center
01:16PM 29.0467 -81.3700 335° Northwest 380 437 21,500 1,500 Climbing Jacksonville Center
01:17PM 29.1533 -81.3947 349° North 380 437 23,000 1,440 Climbing Jacksonville Center
01:18PM 29.2683 -81.4025 357° North 399 459 24,400 1,200 Climbing Jacksonville Center
01:20PM 29.4983 -81.4300 354° North 410 472 26,700 1,080 Climbing Jacksonville Center
01:21PM 29.6131 -81.4400 356° North 415 478 27,700 960 Climbing Jacksonville Center
01:22PM 29.7344 -81.4528 355° North 415 478 28,700 900 Climbing Jacksonville Center
01:23PM 29.8514 -81.4628 356° North 425 489 29,500 780 Climbing Jacksonville Center
01:24PM 29.9747 -81.4756 355° North 431 496 30,300 900 Climbing Jacksonville Center
01:25PM 30.0981 -81.4856 356° North 431 496 31,300 900 Climbing Jacksonville Center
01:26PM 30.2214 -81.4983 355° North 436 502 32,100 840 Climbing Jacksonville Center
01:27PM 30.3467 -81.5086 356° North 441 507 33,000 420 Climbing Jacksonville Center
01:28PM 30.4678 -81.4994 North 441 507 33,000  Level Jacksonville Center
01:29PM 30.5908 -81.4906 North 436 502 33,000  Level Jacksonville Center
01:30PM 30.7117 -81.4789 North 441 507 33,000  Level Jacksonville Center
01:31PM 30.8328 -81.4725 North 441 507 33,000  Level Jacksonville Center
01:32PM 30.9581 -81.4608 North 441 507 33,000  Level Jacksonville Center
01:33PM 31.0789 -81.4542 North 441 507 33,000  Level Jacksonville Center
01:34PM 31.2019 -81.4425 North 441 507 33,000  Level Jacksonville Center
01:35PM 31.3208 -81.4214 North 441 507 33,000  Level Jacksonville Center
01:36PM 31.4539 -81.3825 14° North 435 501 33,000  Level Jacksonville Center
01:37PM 31.5622 -81.3542 13° North 440 506 33,000  Level Jacksonville Center
01:38PM 31.6953 -81.3200 12° North 440 506 33,000  Level Jacksonville Center
01:39PM 31.8036 -81.2914 13° North 440 506 33,000  Level Jacksonville Center
01:40PM 31.9367 -81.2525 14° North 440 506 33,000  Level Jacksonville Center
01:41PM 32.0294 -81.1575 41° Northeast 433 498 33,000  Level Jacksonville Center
01:42PM 32.1053 -81.0556 49° Northeast 439 505 33,000  Level Jacksonville Center
01:43PM 32.2017 -80.9408 45° Northeast 438 504 33,000  Level Jacksonville Center
01:44PM 32.2753 -80.8458 47° Northeast 438 504 33,000  Level Jacksonville Center
01:45PM 32.3650 -80.7258 48° Northeast 433 498 33,000  Level Jacksonville Center
01:46PM 32.4489 -80.6203 47° Northeast 433 498 33,000  Level Jacksonville Center
01:47PM 32.5303 -80.5122 48° Northeast 430 495 33,000  Level Jacksonville Center
01:49PM 32.6953 -80.2983 47° Northeast 435 501 33,000  Level Jacksonville Center
01:50PM 32.7764 -80.1897 48° Northeast 435 501 33,000  Level Jacksonville Center
01:51PM 32.8575 -80.0808 48° Northeast 435 501 33,000  Level Jacksonville Center
01:52PM 32.9392 -79.9917 42° Northeast 435 501 33,000  Level Jacksonville Center
01:53PM 33.0200 -79.8800 49° Northeast 435 501 33,000  Level Jacksonville Center
01:54PM 33.0986 -79.7708 49° Northeast 435 501 33,000  Level Jacksonville Center
01:55PM 33.1753 -79.6589 51° Northeast 430 495 33,000  Level Jacksonville Center
01:56PM 33.2536 -79.5444 51° Northeast 435 501 33,000  Level Jacksonville Center
01:57PM 33.3319 -79.4344 50° Northeast 435 501 33,000  Level Jacksonville Center
01:58PM 33.4081 -79.3197 52° Northeast 435 501 33,000  Level Jacksonville Center
01:59PM 33.4883 -79.2092 49° Northeast 435 501 33,000  Level Jacksonville Center
02:00PM 33.5603 -79.1017 51° Northeast 429 494 33,000  Level Jacksonville Center
02:01PM 33.6425 -78.9908 48° Northeast 429 494 33,000  Level Jacksonville Center
02:02PM 33.8039 -78.8606 34° Northeast 431 496 33,000  Level Washington Center
02:03PM 33.9042 -78.7794 34° Northeast 436 502 33,000  Level Washington Center
02:04PM 34.0169 -78.6886 34° Northeast 436 502 33,000  Level Washington Center
02:05PM 34.1172 -78.6094 33° Northeast 431 496 33,000  Level Washington Center
02:06PM 34.2194 -78.5253 34° Northeast 431 496 33,000  Level Washington Center
02:08PM 34.3086 -78.4429 30° Northeast  Level FlightAware Approximate
02:08PM 34.4194 -78.3589 30° Northeast 431 496 33,000  Level Washington Center
02:09PM 34.5214 -78.2767 34° Northeast 431 496 33,000  Level Washington Center
02:10PM 34.6214 -78.1942 34° Northeast 431 496 33,000  Level Washington Center
02:11PM 34.7233 -78.1114 34° Northeast 431 496 33,000  Level Washington Center
02:12PM 34.8058 -78.0481 32° Northeast 431 496 33,000  Level Washington Center
02:13PM 34.9161 -77.9603 33° Northeast 431 496 33,000  Level Washington Center
02:14PM 35.0200 -77.8797 32° Northeast 436 502 33,000  Level Washington Center
02:15PM 35.1236 -77.8014 32° Northeast 436 502 33,000  Level Washington Center
02:16PM 35.2253 -77.7253 31° Northeast 436 502 33,000  Level Washington Center
02:17PM 35.3289 -77.6439 33° Northeast 436 502 33,000  Level Washington Center
02:18PM 35.4303 -77.5675 32° Northeast 436 502 33,000  Level Washington Center
02:19PM 35.5339 -77.4911 31° Northeast 436 502 33,000  Level Washington Center
02:20PM 35.6372 -77.4117 32° Northeast 436 502 33,000  Level Washington Center
02:21PM 35.7492 -77.3247 32° Northeast 436 502 33,000  Level Washington Center
02:22PM 35.8506 -77.2450 33° Northeast 436 502 33,000  Level Washington Center
02:23PM 35.9517 -77.1675 32° Northeast 436 502 33,000  Level Washington Center
02:24PM 36.0528 -77.0872 33° Northeast 430 495 33,000 -300 Level Washington Center
02:25PM 36.1519 -77.0069 33° Northeast 430 495 32,500 -600 Descending Washington Center
02:26PM 36.2550 -76.9261 32° Northeast 430 495 31,800 -780 Descending Washington Center
02:27PM 36.3603 -76.8456 32° Northeast 435 501 31,000 -780 Descending Washington Center
02:28PM 36.4611 -76.7669 32° Northeast 435 501 30,300 -780 Descending Washington Center
02:29PM 36.5664 -76.6833 33° Northeast 435 501 29,500 -660 Descending Washington Center
02:30PM 36.6714 -76.5992 33° Northeast 435 501 29,000 -300 Descending Washington Center
02:31PM 36.7722 -76.5150 34° Northeast 435 501 29,000  Level Washington Center
02:32PM 36.8750 -76.4306 33° Northeast 435 501 29,000  Level Washington Center
02:33PM 36.9797 -76.3483 32° Northeast 435 501 29,000  Level Washington Center
02:34PM 37.0806 -76.2661 33° Northeast 435 501 29,000  Level Washington Center
02:35PM 37.1725 -76.1914 33° Northeast 435 501 29,000  Level Washington Center
02:36PM 37.2814 -76.1114 30° Northeast 435 501 29,000 -60 Level Washington Center
02:37PM 37.3819 -76.0283 33° Northeast 435 501 28,900 -480 Descending Washington Center
02:38PM 37.4864 -75.9400 34° Northeast 435 501 28,100 -780 Descending Washington Center
02:39PM 37.5869 -75.8564 33° Northeast 435 501 27,400 -780 Descending Washington Center
02:40PM 37.6911 -75.7756 32° Northeast 435 501 26,600 -780 Descending Washington Center
02:41PM 37.7894 -75.6942 33° Northeast 430 495 25,900 -780 Descending Washington Center
02:42PM 37.8894 -75.6075 34° Northeast 430 495 25,100 -480 Descending Washington Center
02:43PM 37.9875 -75.5233 34° Northeast 430 495 25,000 -60 Descending Washington Center
02:44PM 38.0897 -75.4492 30° Northeast 425 489 25,000 -240 Level Washington Center
02:45PM 38.1958 -75.3856 25° Northeast 419 482 24,600 -1,260 Descending Washington Center
02:46PM 38.3000 -75.3192 27° Northeast 414 476 22,600 -2,100 Descending Washington Center
02:47PM 38.3958 -75.2525 29° Northeast 401 461 20,500 -2,100 Descending Washington Center
02:48PM 38.4914 -75.1911 27° Northeast 391 450 18,400 -2,100 Descending Washington Center
02:49PM 38.5872 -75.1294 27° Northeast 380 437 16,300 -1,740 Descending Washington Center
02:50PM 38.6767 -75.0731 26° Northeast 368 423 15,000 -1,320 Descending Washington Center
02:51PM 38.7722 -75.0325 18° North 357 411 13,700 -1,740 Descending Washington Center
02:52PM 38.8661 -75.0239 North 339 390 11,500 -1,380 Descending Washington Center
02:53PM 38.9578 -75.0150 North 334 384 11,000 -300 Descending Washington Center
02:54PM 39.0514 -75.0089 North 334 384 11,000  Level Washington Center
02:55PM 39.1431 -75.0028 North 328 377 11,000 -720 Level Washington Center
02:57PM 39.3167 -74.9833 North 297 342 9,000 -720 Descending Philadelphia TRACON
02:58PM 39.4000 -74.9833 360° North 294 338 9,000 -420 Level Philadelphia TRACON
02:59PM 39.4667 -75.0333 330° Northwest 284 327 8,300 -1,320 Descending Philadelphia TRACON
03:00PM 39.5167 -75.1000 314° West 281 323 6,400 -1,140 Descending Philadelphia TRACON
03:01PM 39.5833 -75.1667 322° Northwest 224 258 6,000 -240 Descending Philadelphia TRACON
03:02PM 39.6500 -75.1500 11° North 243 280 6,000  Level Philadelphia TRACON
03:03PM 39.7000 -75.1333 14° North 242 278 6,000  Level Philadelphia TRACON
03:04PM 39.7667 -75.1000 21° North 243 280 6,000  Level Philadelphia TRACON
03:05PM 39.8167 -75.0333 46° Northeast 229 264 6,000 -300 Level Philadelphia TRACON
03:06PM 39.8333 -74.9667 72° East 209 241 5,400 -720 Descending Philadelphia TRACON
03:07PM 39.8667 -74.9000 57° Northeast 196 226 4,600 -960 Descending Philadelphia TRACON
03:08PM 39.9167 -74.9333 333° Northwest 183 211 3,500 -840 Descending Philadelphia TRACON
03:09PM 39.9333 -74.9667 303° West 166 191 3,000 -360 Descending Philadelphia TRACON
03:10PM 39.9167 -75.0333 252° West 171 197 2,900 -480 Descending Philadelphia TRACON
03:11PM 39.9000 -75.0833 247° West 165 190 2,100 -840 Descending Philadelphia TRACON
03:12PM 39.9000 -75.1333 270° West 132 152 1,300 -720 Descending Philadelphia TRACON
03:14PM 39.8833 -75.1833 247° West 132 152 600 -660 Descending Philadelphia TRACON
03:15PM 39.8667 -75.2333 258° West  Level FlightAware Approximate
03:22PM 39.8722 -75.2409 258° West  Level Estimated